createdAt,value
2022-10-13T00:01:17.963Z,101465.00
2022-10-13T00:03:47.257Z,101467.56
2022-10-13T00:06:23.815Z,101466.78
2022-10-13T00:08:51.717Z,101473.59
2022-10-13T00:11:22.798Z,101464.94
2022-10-13T00:13:52.052Z,101452.00
2022-10-13T00:16:21.793Z,101462.25
2022-10-13T00:18:50.059Z,101456.19
2022-10-13T00:21:22.431Z,101459.56
2022-10-13T00:23:51.049Z,101465.59
2022-10-13T00:26:23.018Z,101460.47
2022-10-13T00:28:52.737Z,101455.28
2022-10-13T00:31:25.364Z,101460.41
2022-10-13T00:33:53.943Z,101456.88
2022-10-13T00:36:23.581Z,101455.03
2022-10-13T00:38:52.133Z,101454.19
2022-10-13T00:41:20.502Z,101455.97
2022-10-13T00:44:00.050Z,101459.38
2022-10-13T00:46:33.634Z,101453.34
2022-10-13T00:49:14.281Z,101448.91
2022-10-13T00:51:49.527Z,101456.66
2022-10-13T00:54:24.722Z,101456.59
2022-10-13T00:56:54.007Z,101453.13
2022-10-13T00:59:27.304Z,101450.50
2022-10-13T01:01:57.316Z,101448.03
2022-10-13T01:04:30.773Z,101445.28
2022-10-13T01:06:59.466Z,101449.53
2022-10-13T01:09:34.856Z,101441.72
2022-10-13T01:12:42.282Z,101441.66
2022-10-13T01:15:34.233Z,101441.63
2022-10-13T01:18:30.313Z,101432.97
2022-10-13T01:21:18.709Z,101426.91
2022-10-13T01:24:28.091Z,101427.75
2022-10-13T01:27:17.822Z,101433.00
2022-10-13T01:30:12.821Z,101427.78
2022-10-13T01:32:50.742Z,101426.97
2022-10-13T01:35:50.441Z,101426.09
2022-10-13T01:39:00.122Z,101426.03
2022-10-13T01:41:37.662Z,101431.16
2022-10-13T01:44:17.573Z,101423.34
2022-10-13T01:46:54.882Z,101426.75
2022-10-13T01:49:28.240Z,101420.72
2022-10-13T01:52:00.159Z,101426.78
2022-10-13T01:54:28.122Z,101425.03
2022-10-13T01:56:57.517Z,101435.56
2022-10-13T01:59:28.589Z,101427.81
2022-10-13T02:02:28.777Z,101424.38
2022-10-13T02:05:15.635Z,101423.91
2022-10-13T02:07:54.375Z,101419.78
2022-10-13T02:10:42.286Z,101412.81
2022-10-13T02:13:14.568Z,101416.03
2022-10-13T02:15:47.479Z,101414.16
2022-10-13T02:18:18.525Z,101408.03
2022-10-13T02:20:47.175Z,101407.91
2022-10-13T02:23:17.015Z,101410.38
2022-10-13T02:25:46.756Z,101407.78
2022-10-13T02:28:15.311Z,101414.75
2022-10-13T02:30:44.799Z,101406.91
2022-10-13T02:33:14.375Z,101402.75
2022-10-13T02:35:43.308Z,101399.16
2022-10-13T02:38:12.912Z,101404.25
2022-10-13T02:40:40.844Z,101407.59
2022-10-13T02:43:08.520Z,101403.25
2022-10-13T02:45:36.337Z,101404.13
2022-10-13T02:48:04.480Z,101405.94
2022-10-13T02:50:32.242Z,101398.94
2022-10-13T02:53:00.116Z,101397.16
2022-10-13T02:55:28.117Z,101410.22
2022-10-13T02:57:58.936Z,101404.03
2022-10-13T03:00:26.891Z,101405.72
2022-10-13T03:02:54.852Z,101405.56
2022-10-13T03:05:22.596Z,101403.03
2022-10-13T03:07:50.303Z,101401.25
2022-10-13T03:10:18.387Z,101400.69
2022-10-13T03:12:46.086Z,101397.13
2022-10-13T03:15:14.091Z,101402.13
2022-10-13T03:17:42.034Z,101398.63
2022-10-13T03:20:10.372Z,101391.66
2022-10-13T03:22:38.091Z,101396.09
2022-10-13T03:25:06.830Z,101397.72
2022-10-13T03:27:34.706Z,101396.06
2022-10-13T03:30:02.899Z,101401.88
2022-10-13T03:32:31.825Z,101400.19
2022-10-13T03:34:59.589Z,101393.34
2022-10-13T03:37:30.638Z,101393.41
2022-10-13T03:39:58.580Z,101396.56
2022-10-13T03:42:26.293Z,101391.66
2022-10-13T03:44:56.552Z,101394.28
2022-10-13T03:47:24.775Z,101389.91
2022-10-13T03:49:55.195Z,101391.41
2022-10-13T03:52:23.755Z,101394.63
2022-10-13T03:54:51.851Z,101389.34
2022-10-13T03:57:19.613Z,101391.19
2022-10-13T03:59:47.422Z,101387.72
2022-10-13T04:02:15.315Z,101383.16
2022-10-13T04:04:43.290Z,101383.19
2022-10-13T04:07:10.983Z,101387.50
2022-10-13T04:09:38.970Z,101383.16
2022-10-13T04:12:06.690Z,101386.69
2022-10-13T04:14:34.736Z,101384.94
2022-10-13T04:17:09.117Z,101394.41
2022-10-13T04:19:36.971Z,101390.84
2022-10-13T04:22:06.367Z,101397.66
2022-10-13T04:24:34.509Z,101396.78
2022-10-13T04:27:02.268Z,101395.81
2022-10-13T04:29:30.060Z,101402.66
2022-10-13T04:32:00.177Z,101401.81
2022-10-13T04:34:27.894Z,101395.84
2022-10-13T04:36:55.652Z,101399.34
2022-10-13T04:39:23.605Z,101402.75
2022-10-13T04:41:51.963Z,101408.81
2022-10-13T04:44:19.981Z,101402.81
2022-10-13T04:46:47.853Z,101403.78
2022-10-13T04:49:16.428Z,101403.72
2022-10-13T04:51:44.525Z,101401.03
2022-10-13T04:54:12.188Z,101412.19
2022-10-13T04:56:40.054Z,101409.66
2022-10-13T04:59:07.820Z,101410.53
2022-10-13T05:01:36.202Z,101417.34
2022-10-13T05:04:07.466Z,101406.25
2022-10-13T05:06:58.900Z,101401.94
2022-10-13T05:09:27.871Z,101400.34
2022-10-13T05:11:55.556Z,101401.31
2022-10-13T05:14:23.589Z,101397.06
2022-10-13T05:16:51.577Z,101407.38
2022-10-13T05:19:20.296Z,101403.03
2022-10-13T05:21:50.616Z,101404.81
2022-10-13T05:24:20.726Z,101401.47
2022-10-13T05:26:50.434Z,101407.72
2022-10-13T05:29:18.962Z,101408.84
2022-10-13T05:31:47.057Z,101399.66
2022-10-13T05:34:14.791Z,101404.16
2022-10-13T05:36:43.101Z,101393.88
2022-10-13T05:39:10.916Z,101395.72
2022-10-13T05:41:39.530Z,101394.91
2022-10-13T05:44:14.224Z,101399.19
2022-10-13T05:46:54.487Z,101403.72
2022-10-13T05:49:22.296Z,101408.34
2022-10-13T05:51:53.704Z,101408.75
2022-10-13T05:54:33.775Z,101408.81
2022-10-13T05:57:10.517Z,101404.53
2022-10-13T05:59:44.403Z,101405.44
2022-10-13T06:02:16.055Z,101405.63
2022-10-13T06:04:49.109Z,101399.56
2022-10-13T06:07:17.706Z,101407.41
2022-10-13T06:09:45.766Z,101410.06
2022-10-13T06:12:13.705Z,101412.75
2022-10-13T06:14:42.890Z,101413.84
2022-10-13T06:17:12.596Z,101417.56
2022-10-13T06:19:45.438Z,101419.47
2022-10-13T06:22:13.182Z,101422.13
2022-10-13T06:24:41.031Z,101423.06
2022-10-13T06:27:10.830Z,101419.59
2022-10-13T06:29:38.848Z,101416.13
2022-10-13T06:32:07.281Z,101422.19
2022-10-13T06:34:35.306Z,101421.38
2022-10-13T06:37:03.017Z,101423.97
2022-10-13T06:39:30.936Z,101427.41
2022-10-13T06:42:01.733Z,101423.94
2022-10-13T06:44:38.809Z,101424.81
2022-10-13T06:47:06.650Z,101427.38
2022-10-13T06:49:35.078Z,101423.03
2022-10-13T06:52:03.229Z,101415.22
2022-10-13T06:54:31.408Z,101423.88
2022-10-13T06:56:59.610Z,101415.16
2022-10-13T06:59:27.883Z,101415.16
2022-10-13T07:01:55.761Z,101418.63
2022-10-13T07:04:25.899Z,101415.03
2022-10-13T07:06:55.787Z,101410.66
2022-10-13T07:09:23.722Z,101406.16
2022-10-13T07:11:51.446Z,101404.34
2022-10-13T07:14:19.890Z,101402.63
2022-10-13T07:16:50.413Z,101401.53
2022-10-13T07:19:18.296Z,101401.72
2022-10-13T07:21:46.229Z,101412.19
2022-10-13T07:24:14.841Z,101407.25
2022-10-13T07:26:42.753Z,101406.28
2022-10-13T07:29:10.870Z,101406.25
2022-10-13T07:31:38.641Z,101387.53
2022-10-13T07:34:06.801Z,101407.97
2022-10-13T07:36:35.685Z,101403.88
2022-10-13T07:39:03.881Z,101405.31
2022-10-13T07:41:33.444Z,101399.19
2022-10-13T07:44:01.725Z,101401.13
2022-10-13T07:46:29.907Z,101403.16
2022-10-13T07:48:58.191Z,101395.34
2022-10-13T07:51:26.155Z,101393.25
2022-10-13T07:53:54.369Z,101390.88
2022-10-13T07:56:22.063Z,101390.75
2022-10-13T07:58:49.921Z,101380.84
2022-10-13T08:01:18.027Z,101380.69
2022-10-13T08:03:49.940Z,101382.66
2022-10-13T08:06:19.263Z,101382.81
2022-10-13T08:08:48.013Z,101385.31
2022-10-13T08:11:18.120Z,101378.53
2022-10-13T08:13:51.193Z,101383.78
2022-10-13T08:16:22.042Z,101382.63
2022-10-13T08:18:50.494Z,101373.22
2022-10-13T08:24:12.834Z,101371.38
2022-10-13T08:26:41.541Z,101363.50
2022-10-13T08:29:25.034Z,101364.09
2022-10-13T08:31:54.130Z,101366.75
2022-10-13T08:34:24.430Z,101359.41
2022-10-13T08:36:54.833Z,101360.19
2022-10-13T08:39:24.698Z,101362.97
2022-10-13T08:41:53.205Z,101355.91
2022-10-13T08:47:22.044Z,101356.91
2022-10-13T08:49:50.405Z,101363.97
2022-10-13T08:52:24.764Z,101358.06
2022-10-13T08:54:54.902Z,101358.59
2022-10-13T08:57:24.432Z,101353.75
2022-10-13T08:59:53.536Z,101350.66
2022-10-13T09:02:31.260Z,101349.19
2022-10-13T09:05:03.946Z,101349.25
2022-10-13T09:07:37.253Z,101349.00
2022-10-13T09:10:07.435Z,101347.81
2022-10-13T09:12:35.242Z,101343.91
2022-10-13T09:15:12.413Z,101348.06
2022-10-13T09:17:41.799Z,101342.91
2022-10-13T09:20:29.550Z,101340.34
2022-10-13T09:23:08.128Z,101340.16
2022-10-13T09:25:44.574Z,101337.03
2022-10-13T09:28:29.871Z,101329.06
2022-10-13T09:31:26.177Z,101331.91
2022-10-13T09:34:14.531Z,101325.47
2022-10-13T09:37:03.426Z,101322.03
2022-10-13T09:39:33.904Z,101320.50
2022-10-13T09:42:20.836Z,101309.00
2022-10-13T09:44:58.907Z,101309.34
2022-10-13T09:47:28.723Z,101316.53
2022-10-13T09:50:19.014Z,101311.19
2022-10-13T09:52:48.300Z,101319.47
2022-10-13T09:55:32.221Z,101310.66
2022-10-13T09:58:32.316Z,101311.16
2022-10-13T10:01:00.746Z,101303.34
2022-10-13T10:03:35.621Z,101300.59
2022-10-13T10:06:12.384Z,101283.16
2022-10-13T10:09:06.582Z,101262.94
2022-10-13T10:11:44.161Z,101283.78
2022-10-13T10:14:26.271Z,101269.28
2022-10-13T10:17:04.129Z,101263.25
2022-10-13T10:19:52.190Z,101256.66
2022-10-13T10:22:44.321Z,101270.38
2022-10-13T10:25:21.037Z,101263.41
2022-10-13T10:28:16.729Z,101261.69
2022-10-13T10:30:55.398Z,101256.75
2022-10-13T10:33:50.068Z,101252.97
2022-10-13T10:36:34.642Z,101254.88
2022-10-13T10:39:23.605Z,101233.69
2022-10-13T10:41:58.588Z,101227.63
2022-10-13T10:44:32.282Z,101236.88
2022-10-13T10:47:19.687Z,101222.00
2022-10-13T10:49:57.372Z,101222.28
2022-10-13T10:52:40.425Z,101218.84
2022-10-13T10:55:31.682Z,101216.63
2022-10-13T10:58:05.335Z,101210.00
2022-10-13T11:00:42.008Z,101211.97
2022-10-13T11:03:40.862Z,101219.78
2022-10-13T11:06:18.312Z,101211.97
2022-10-13T11:08:47.768Z,101213.69
2022-10-13T11:11:29.263Z,101202.06
2022-10-13T11:14:07.275Z,101203.78
2022-10-13T11:16:40.805Z,101199.28
2022-10-13T11:19:32.436Z,101193.47
2022-10-13T11:22:00.572Z,101193.88
2022-10-13T11:24:38.894Z,101182.38
2022-10-13T11:27:16.245Z,101181.91
2022-10-13T11:29:49.057Z,101181.84
2022-10-13T11:32:46.488Z,101163.06
2022-10-13T11:35:23.217Z,101170.88
2022-10-13T11:38:07.613Z,101168.91
2022-10-13T11:41:04.176Z,101160.97
2022-10-13T11:44:13.452Z,101163.41
2022-10-13T11:46:50.942Z,101157.84
2022-10-13T11:49:37.604Z,101154.09
2022-10-13T11:52:40.989Z,101147.63
2022-10-13T11:55:17.737Z,101151.66
2022-10-13T11:57:45.836Z,101142.84
2022-10-13T12:00:19.112Z,101140.22
2022-10-13T12:02:53.369Z,101137.31
2022-10-13T12:05:24.790Z,101125.41
2022-10-13T12:07:55.789Z,101133.75
2022-10-13T12:10:34.574Z,101130.41
2022-10-13T12:13:05.101Z,101124.31
2022-10-13T12:15:34.020Z,101128.53
2022-10-13T12:18:02.769Z,101137.19
2022-10-13T12:20:33.128Z,101135.41
2022-10-13T12:23:01.300Z,101123.03
2022-10-13T12:25:31.269Z,101125.06
2022-10-13T12:28:01.187Z,101120.22
2022-10-13T12:30:36.369Z,101104.22
2022-10-13T12:33:19.397Z,101106.72
2022-10-13T12:35:47.391Z,101094.16
2022-10-13T12:38:24.622Z,101098.34
2022-10-13T12:40:54.432Z,101093.81
2022-10-13T12:43:26.661Z,101108.91
2022-10-13T12:45:54.681Z,101099.84
2022-10-13T12:48:37.076Z,101100.38
2022-10-13T12:51:19.961Z,101090.22
2022-10-13T12:53:48.798Z,101084.94
2022-10-13T12:56:28.408Z,101084.94
2022-10-13T12:58:56.844Z,101089.78
2022-10-13T13:01:35.255Z,101089.06
2022-10-13T13:04:16.352Z,101084.88
2022-10-13T13:07:02.049Z,101087.84
2022-10-13T13:09:39.032Z,101082.09
2022-10-13T13:12:22.904Z,101081.38
2022-10-13T13:14:55.003Z,101071.88
2022-10-13T13:17:53.293Z,101073.53
2022-10-13T13:20:29.533Z,101071.94
2022-10-13T13:22:58.173Z,101072.94
2022-10-13T13:25:26.543Z,101074.94
2022-10-13T13:27:54.381Z,101064.50
2022-10-13T13:30:23.952Z,101061.16
2022-10-13T13:32:52.288Z,101072.72
2022-10-13T13:35:20.011Z,101070.00
2022-10-13T13:37:50.557Z,101063.53
2022-10-13T13:40:22.003Z,101062.34
2022-10-13T13:42:50.073Z,101062.03
2022-10-13T13:45:21.144Z,101046.53
2022-10-13T13:47:50.532Z,101063.94
2022-10-13T13:50:23.121Z,101066.63
2022-10-13T13:53:00.104Z,101066.19
2022-10-13T13:55:29.808Z,101064.59
2022-10-13T13:57:58.294Z,101059.81
2022-10-13T14:00:26.291Z,101056.19
2022-10-13T14:02:57.575Z,101056.63
2022-10-13T14:05:25.861Z,101055.34
2022-10-13T14:07:55.977Z,101058.78
2022-10-13T14:10:25.272Z,101047.44
2022-10-13T14:12:53.432Z,101049.44
2022-10-13T14:15:23.410Z,101045.16
2022-10-13T14:17:54.456Z,101034.38
2022-10-13T14:20:22.706Z,101043.31
2022-10-13T14:22:50.647Z,101045.28
2022-10-13T14:25:18.679Z,101041.00
2022-10-13T14:27:46.678Z,101032.41
2022-10-13T14:30:15.247Z,101038.41
2022-10-13T14:32:42.995Z,101040.00
2022-10-13T14:35:11.342Z,101037.69
2022-10-13T14:37:39.638Z,101039.16
2022-10-13T14:40:08.093Z,101043.16
2022-10-13T14:42:36.045Z,101037.94
2022-10-13T14:45:06.659Z,101040.88
2022-10-13T14:47:34.617Z,101035.31
2022-10-13T14:50:03.016Z,101037.66
2022-10-13T14:52:30.792Z,101023.22
2022-10-13T14:54:59.059Z,101026.19
2022-10-13T14:57:27.002Z,101023.94
2022-10-13T14:59:58.038Z,101019.16
2022-10-13T15:02:29.977Z,101016.06
2022-10-13T15:04:57.997Z,101015.56
2022-10-13T15:07:25.948Z,101017.91
2022-10-13T15:10:05.077Z,101018.16
2022-10-13T15:12:34.277Z,101016.13
2022-10-13T15:15:02.532Z,101014.75
2022-10-13T15:17:31.282Z,101016.22
2022-10-13T15:19:59.478Z,101016.69
2022-10-13T15:22:27.277Z,101016.16
2022-10-13T15:24:55.092Z,101018.38
2022-10-13T15:27:23.316Z,101016.13
2022-10-13T15:29:51.123Z,101000.75
2022-10-13T15:32:20.419Z,101005.81
2022-10-13T15:34:55.854Z,101010.34
2022-10-13T15:37:23.608Z,101017.59
2022-10-13T15:39:56.843Z,101005.78
2022-10-13T15:42:25.386Z,101003.09
2022-10-13T15:45:10.375Z,100999.00
2022-10-13T15:47:39.601Z,101004.00
2022-10-13T15:50:08.819Z,100997.53
2022-10-13T15:52:41.129Z,100996.31
2022-10-13T15:55:12.329Z,100989.66
2022-10-13T15:57:40.352Z,101000.41
2022-10-13T16:00:10.749Z,100991.84
2022-10-13T16:02:42.562Z,100986.09
2022-10-13T16:05:12.913Z,100991.59
2022-10-13T16:07:41.679Z,100989.19
2022-10-13T16:10:12.421Z,100993.88
2022-10-13T16:12:44.401Z,100984.50
2022-10-13T16:15:17.811Z,100987.34
2022-10-13T16:17:46.453Z,100988.19
2022-10-13T16:20:14.827Z,100984.69
2022-10-13T16:22:42.803Z,100986.78
2022-10-13T16:25:11.883Z,100984.31
2022-10-13T16:27:44.034Z,100987.94
2022-10-13T16:30:13.283Z,100990.50
2022-10-13T16:32:41.322Z,100999.53
2022-10-13T16:35:09.458Z,101004.94
2022-10-13T16:37:37.479Z,101006.81
2022-10-13T16:40:05.603Z,100999.13
2022-10-13T16:42:33.520Z,101001.06
2022-10-13T16:45:01.395Z,100998.69
2022-10-13T16:47:32.025Z,100978.94
2022-10-13T16:49:59.857Z,100992.88
2022-10-13T16:52:27.789Z,100991.31
2022-10-13T16:54:55.545Z,100986.97
2022-10-13T16:57:25.551Z,100990.50
2022-10-13T16:59:53.321Z,100988.75
2022-10-13T17:02:21.177Z,100990.56
2022-10-13T17:04:49.413Z,100992.38
2022-10-13T17:07:17.179Z,100977.91
2022-10-13T17:09:45.186Z,100997.81
2022-10-13T17:12:12.983Z,100993.66
2022-10-13T17:14:41.433Z,100982.47
2022-10-13T17:17:09.197Z,100981.53
2022-10-13T17:19:37.136Z,100971.78
2022-10-13T17:22:04.852Z,100980.41
2022-10-13T17:24:33.297Z,100974.28
2022-10-13T17:27:01.077Z,100968.97
2022-10-13T17:29:29.454Z,100962.75
2022-10-13T17:31:57.270Z,100965.44
2022-10-13T17:34:25.291Z,100971.63
2022-10-13T17:36:53.050Z,100981.28
2022-10-13T17:39:21.089Z,100969.19
2022-10-13T17:41:48.895Z,100972.78
2022-10-13T17:44:20.646Z,100975.41
2022-10-13T17:46:50.075Z,100968.59
2022-10-13T17:49:18.413Z,100967.84
2022-10-13T17:51:46.591Z,100960.88
2022-10-13T17:54:16.650Z,100969.72
2022-10-13T17:56:48.718Z,100960.28
2022-10-13T17:59:17.864Z,100958.59
2022-10-13T18:01:46.526Z,100953.41
2022-10-13T18:04:18.502Z,100962.09
2022-10-13T18:06:47.209Z,100956.97
2022-10-13T18:09:20.570Z,100970.91
2022-10-13T18:11:51.006Z,100964.00
2022-10-13T18:14:21.907Z,100969.22
2022-10-13T18:16:51.649Z,100962.34
2022-10-13T18:19:21.300Z,100960.66
2022-10-13T18:21:49.540Z,100962.50
2022-10-13T18:24:17.323Z,100954.69
2022-10-13T18:26:45.639Z,100959.03
2022-10-13T18:29:13.908Z,100958.19
2022-10-13T18:31:42.439Z,100957.34
2022-10-13T18:34:16.032Z,100955.66
2022-10-13T18:36:50.344Z,100964.41
2022-10-13T18:39:25.778Z,100958.34
2022-10-13T18:41:54.675Z,100959.25
2022-10-13T18:44:23.553Z,100956.72
2022-10-13T18:46:52.988Z,100959.38
2022-10-13T18:49:23.894Z,100959.38
2022-10-13T18:51:52.166Z,100961.91
2022-10-13T18:54:20.566Z,100962.84
2022-10-13T18:56:48.566Z,100955.97
2022-10-13T18:59:17.974Z,100949.00
2022-10-13T19:01:46.232Z,100953.38
2022-10-13T19:04:16.743Z,100949.09
2022-10-13T19:06:46.421Z,100955.16
2022-10-13T19:09:16.025Z,100952.53
2022-10-13T19:11:44.039Z,100947.34
2022-10-13T19:14:14.306Z,100944.78
2022-10-13T19:16:44.144Z,100943.97
2022-10-13T19:19:12.751Z,100931.81
2022-10-13T19:21:41.855Z,100930.06
2022-10-13T19:24:10.018Z,100930.03
2022-10-13T19:26:38.042Z,100930.00
2022-10-13T19:29:13.100Z,100929.94
2022-10-13T19:31:43.154Z,100922.00
2022-10-13T19:34:13.160Z,100922.00
2022-10-13T19:36:46.498Z,100919.41
2022-10-13T19:39:23.398Z,100913.28
2022-10-13T19:41:53.040Z,100916.78
2022-10-13T19:44:22.273Z,100917.59
2022-10-13T19:46:50.768Z,100919.31
2022-10-13T19:49:21.036Z,100914.06
2022-10-13T19:51:51.518Z,100920.19
2022-10-13T19:54:21.690Z,100914.19
2022-10-13T19:56:50.743Z,100912.44
2022-10-13T19:59:19.793Z,100919.38
2022-10-13T20:01:48.258Z,100919.34
2022-10-13T20:04:18.534Z,100910.69
2022-10-13T20:06:47.569Z,100913.28
2022-10-13T20:09:15.808Z,100912.44
2022-10-13T20:11:46.496Z,100915.88
2022-10-13T20:14:15.408Z,100920.22
2022-10-13T20:16:43.625Z,100918.66
2022-10-13T20:19:14.107Z,100917.84
2022-10-13T20:21:43.456Z,100920.50
2022-10-13T20:24:13.120Z,100924.88
2022-10-13T20:26:41.171Z,100918.88
2022-10-13T20:29:09.275Z,100918.06
2022-10-13T20:31:37.263Z,100923.31
2022-10-13T20:34:05.088Z,100922.47
2022-10-13T20:36:38.266Z,100919.88
2022-10-13T20:39:07.010Z,100922.47
2022-10-13T20:41:35.343Z,100920.75
2022-10-13T20:44:03.448Z,100926.00
2022-10-13T20:46:34.504Z,100916.50
2022-10-13T20:49:10.841Z,100915.66
2022-10-13T20:51:39.794Z,100921.78
2022-10-13T20:54:09.970Z,100919.16
2022-10-13T20:56:38.209Z,100907.94
2022-10-13T20:59:08.816Z,100914.88
2022-10-13T21:01:37.797Z,100906.13
2022-10-13T21:04:06.426Z,100905.22
2022-10-13T21:06:35.851Z,100899.13
2022-10-13T21:09:05.754Z,100897.38
2022-10-13T21:11:35.447Z,100899.09
2022-10-13T21:14:06.851Z,100901.69
2022-10-13T21:16:37.956Z,100900.81
2022-10-13T21:19:10.211Z,100902.53
2022-10-13T21:21:39.012Z,100898.19
2022-10-13T21:24:08.424Z,100900.81
2022-10-13T21:26:37.261Z,100892.16
2022-10-13T21:29:06.818Z,100898.19
2022-10-13T21:31:35.636Z,100903.31
2022-10-13T21:34:03.598Z,100893.78
2022-10-13T21:36:34.029Z,100895.47
2022-10-13T21:39:06.594Z,100897.19
2022-10-13T21:41:37.156Z,100898.91
2022-10-13T21:44:05.196Z,100894.53
2022-10-13T21:46:35.130Z,100895.44
2022-10-13T21:49:05.724Z,100892.03
2022-10-13T21:51:36.563Z,100892.91
2022-10-13T21:54:09.945Z,100883.38
2022-10-13T21:56:38.824Z,100887.72
2022-10-13T21:59:07.340Z,100886.94
2022-10-13T22:01:35.532Z,100885.25
2022-10-13T22:04:12.809Z,100886.97
2022-10-13T22:06:40.769Z,100877.47
2022-10-13T22:09:08.501Z,100874.88
2022-10-13T22:11:38.201Z,100873.09
2022-10-13T22:14:13.002Z,100869.66
2022-10-13T22:16:44.743Z,100866.19
2022-10-13T22:19:13.408Z,100862.75
2022-10-13T22:21:44.068Z,100865.34
2022-10-13T22:24:17.638Z,100865.41
2022-10-13T22:26:47.203Z,100866.25
2022-10-13T22:29:19.426Z,100864.47
2022-10-13T22:31:48.805Z,100861.03
2022-10-13T22:34:17.693Z,100860.22
2022-10-13T22:36:45.663Z,100865.41
2022-10-13T22:39:14.383Z,100868.88
2022-10-13T22:41:42.753Z,100855.94
2022-10-13T22:44:10.836Z,100857.75
2022-10-13T22:46:39.583Z,100856.00
2022-10-13T22:49:11.789Z,100854.25
2022-10-13T22:51:39.723Z,100856.00
2022-10-13T22:54:07.701Z,100861.28
2022-10-13T22:56:35.706Z,100861.31
2022-10-13T22:59:06.677Z,100855.28
2022-10-13T23:01:34.894Z,100856.25
2022-10-13T23:04:03.613Z,100858.84
2022-10-13T23:06:33.819Z,100857.97
2022-10-13T23:09:05.002Z,100855.38
2022-10-13T23:11:34.121Z,100864.91
2022-10-13T23:14:03.473Z,100859.72
2022-10-13T23:16:32.874Z,100857.16
2022-10-13T23:19:01.936Z,100856.31
2022-10-13T23:21:31.019Z,100852.88
2022-10-13T23:24:04.245Z,100855.47
2022-10-13T23:26:33.439Z,100856.34
2022-10-13T23:29:03.137Z,100859.81
2022-10-13T23:31:31.499Z,100851.16
2022-10-13T23:33:59.609Z,100851.16
2022-10-13T23:36:30.445Z,100847.72
2022-10-13T23:39:05.558Z,100847.72
2022-10-13T23:41:37.091Z,100848.59
2022-10-13T23:44:05.555Z,100839.13
2022-10-13T23:46:33.823Z,100845.13
2022-10-13T23:49:01.855Z,100843.44
2022-10-13T23:51:30.563Z,100844.28
2022-10-13T23:53:59.529Z,100842.56
2022-10-13T23:56:27.737Z,100840.84
2022-10-13T23:58:55.524Z,100837.34
